createdAt,value
2023-02-11T00:01:10.576Z,39.80
2023-02-11T00:03:38.811Z,42.92
2023-02-11T00:06:09.381Z,33.78
2023-02-11T00:08:37.025Z,39.22
2023-02-11T00:11:04.634Z,45.05
2023-02-11T00:13:31.719Z,39.95
2023-02-11T00:15:58.899Z,43.55
2023-02-11T00:18:26.062Z,35.60
2023-02-11T00:20:53.675Z,38.95
2023-02-11T00:23:20.772Z,31.70
2023-02-11T00:25:47.856Z,36.30
2023-02-11T00:28:15.020Z,34.17
2023-02-11T00:30:42.299Z,36.47
2023-02-11T00:33:09.530Z,36.95
2023-02-11T00:35:38.579Z,37.17
2023-02-11T00:38:08.105Z,33.90
2023-02-11T00:40:35.223Z,33.05
2023-02-11T00:43:03.959Z,32.20
2023-02-11T00:45:31.228Z,32.10
2023-02-11T00:47:58.358Z,28.83
2023-02-11T00:50:25.565Z,30.52
2023-02-11T00:52:52.682Z,32.20
2023-02-11T00:55:19.768Z,34.10
2023-02-11T00:57:46.866Z,33.67
2023-02-11T01:00:16.933Z,32.03
2023-02-11T01:02:45.177Z,35.40
2023-02-11T01:05:12.357Z,34.70
2023-02-11T01:07:39.480Z,33.30
2023-02-11T01:10:06.668Z,37.42
2023-02-11T01:12:36.252Z,34.53
2023-02-11T01:15:04.678Z,34.30
2023-02-11T01:17:34.673Z,33.20
2023-02-11T01:20:07.736Z,31.23
2023-02-11T01:22:37.368Z,31.00
2023-02-11T01:25:04.699Z,32.00
2023-02-11T01:27:32.024Z,32.13
2023-02-11T01:29:59.166Z,33.15
2023-02-11T01:32:26.308Z,31.65
2023-02-11T01:34:54.528Z,30.38
2023-02-11T01:37:21.634Z,29.52
2023-02-11T01:39:48.865Z,32.53
2023-02-11T01:42:18.450Z,30.05
2023-02-11T01:44:45.645Z,30.02
2023-02-11T01:47:12.736Z,27.77
2023-02-11T01:49:44.762Z,28.05
2023-02-11T01:52:20.148Z,27.55
2023-02-11T01:55:11.015Z,32.63
2023-02-11T01:57:41.139Z,28.85
2023-02-11T02:00:35.589Z,31.05
2023-02-11T02:03:22.505Z,24.23
2023-02-11T02:06:06.396Z,25.50
2023-02-11T02:08:46.844Z,30.33
2023-02-11T02:11:14.020Z,29.90
2023-02-11T02:13:41.650Z,26.55
2023-02-11T02:16:14.144Z,25.10
2023-02-11T02:18:41.258Z,28.77
2023-02-11T02:22:04.732Z,29.65
2023-02-11T02:24:50.374Z,26.98
2023-02-11T02:27:48.692Z,26.95
2023-02-11T02:30:37.743Z,24.50
2023-02-11T02:33:26.515Z,23.13
2023-02-11T02:35:56.366Z,28.77
2023-02-11T02:38:30.494Z,27.05
2023-02-11T02:41:15.564Z,30.83
2023-02-11T02:43:49.756Z,23.33
2023-02-11T02:46:24.145Z,27.63
2023-02-11T02:48:53.185Z,23.70
2023-02-11T02:51:35.586Z,28.58
2023-02-11T02:54:30.651Z,21.08
2023-02-11T02:57:16.217Z,25.67
2023-02-11T02:59:55.531Z,22.88
2023-02-11T03:02:33.857Z,21.38
2023-02-11T03:05:31.233Z,21.02
2023-02-11T03:08:09.156Z,20.42
2023-02-11T03:10:45.314Z,19.63
2023-02-11T03:13:16.962Z,22.17
2023-02-11T03:15:57.166Z,18.27
2023-02-11T03:18:27.554Z,18.45
2023-02-11T03:20:56.813Z,18.40
2023-02-11T03:23:29.496Z,22.45
2023-02-11T03:26:02.767Z,19.75
2023-02-11T03:28:35.588Z,18.83
2023-02-11T03:31:27.903Z,21.90
2023-02-11T03:34:10.256Z,19.20
2023-02-11T03:36:59.817Z,22.20
2023-02-11T03:39:35.915Z,18.75
2023-02-11T03:42:05.844Z,14.98
2023-02-11T03:44:40.043Z,19.02
2023-02-11T03:47:10.142Z,24.27
2023-02-11T03:49:39.781Z,22.63
2023-02-11T03:52:11.201Z,24.00
2023-02-11T03:54:42.098Z,19.88
2023-02-11T03:57:09.243Z,24.98
2023-02-11T03:59:52.693Z,19.90
2023-02-11T04:02:20.824Z,19.63
2023-02-11T04:04:48.033Z,21.23
2023-02-11T04:07:15.151Z,20.90
2023-02-11T04:09:42.250Z,19.83
2023-02-11T04:12:09.368Z,17.83
2023-02-11T04:14:36.634Z,21.73
2023-02-11T04:17:04.148Z,20.73
2023-02-11T04:19:31.258Z,16.83
2023-02-11T04:21:58.470Z,26.02
2023-02-11T04:24:25.625Z,17.88
2023-02-11T04:26:52.796Z,15.85
2023-02-11T04:29:19.991Z,15.27
2023-02-11T04:31:47.574Z,17.15
2023-02-11T04:34:14.982Z,17.83
2023-02-11T04:36:42.070Z,18.10
2023-02-11T04:39:09.365Z,15.60
2023-02-11T04:41:36.437Z,18.83
2023-02-11T04:44:04.087Z,17.40
2023-02-11T04:46:31.225Z,22.23
2023-02-11T04:48:58.332Z,19.85
2023-02-11T04:51:25.922Z,19.98
2023-02-11T04:53:53.078Z,16.10
2023-02-11T04:56:20.250Z,16.42
2023-02-11T04:58:47.378Z,16.35
2023-02-11T05:01:16.181Z,17.92
2023-02-11T05:03:43.706Z,18.50
2023-02-11T05:06:11.711Z,14.10
2023-02-11T05:08:39.157Z,21.30
2023-02-11T05:11:07.508Z,19.48
2023-02-11T05:13:34.698Z,19.35
2023-02-11T05:16:01.846Z,15.27
2023-02-11T05:18:29.532Z,17.58
2023-02-11T05:20:56.783Z,19.77
2023-02-11T05:23:23.870Z,15.65
2023-02-11T05:25:51.229Z,18.83
2023-02-11T05:28:19.056Z,18.80
2023-02-11T05:30:46.174Z,20.90
2023-02-11T05:33:13.300Z,20.48
2023-02-11T05:35:40.363Z,17.67
2023-02-11T05:38:07.432Z,20.17
2023-02-11T05:40:34.527Z,21.52
2023-02-11T05:43:01.748Z,19.98
2023-02-11T05:45:29.194Z,17.60
2023-02-11T05:47:57.421Z,17.48
2023-02-11T05:50:24.605Z,28.42
2023-02-11T05:52:53.380Z,22.13
2023-02-11T05:55:20.546Z,24.80
2023-02-11T05:57:47.719Z,20.90
2023-02-11T06:00:15.241Z,17.48
2023-02-11T06:02:42.701Z,20.65
2023-02-11T06:05:09.942Z,16.23
2023-02-11T06:07:37.129Z,14.98
2023-02-11T06:10:04.550Z,15.35
2023-02-11T06:12:31.624Z,15.75
2023-02-11T06:14:58.702Z,20.95
2023-02-11T06:17:25.770Z,17.05
2023-02-11T06:19:52.824Z,14.23
2023-02-11T06:22:19.908Z,14.73
2023-02-11T06:25:00.736Z,17.33
2023-02-11T06:27:29.148Z,14.93
2023-02-11T06:29:56.302Z,16.60
2023-02-11T06:32:43.403Z,19.00
2023-02-11T06:35:12.065Z,18.60
2023-02-11T06:37:40.888Z,12.43
2023-02-11T06:40:09.572Z,19.58
2023-02-11T06:42:38.698Z,15.52
2023-02-11T06:45:08.935Z,16.33
2023-02-11T06:47:36.931Z,14.93
2023-02-11T06:50:04.442Z,15.13
2023-02-11T06:52:32.182Z,20.17
2023-02-11T06:54:59.401Z,14.70
2023-02-11T06:57:26.468Z,19.15
2023-02-11T06:59:53.579Z,17.60
2023-02-11T07:02:21.229Z,14.50
2023-02-11T07:04:49.367Z,15.88
2023-02-11T07:07:16.493Z,16.45
2023-02-11T07:09:43.625Z,24.45
2023-02-11T07:12:10.765Z,14.95
2023-02-11T07:14:37.948Z,18.55
2023-02-11T07:17:05.194Z,15.07
2023-02-11T07:19:32.298Z,18.92
2023-02-11T07:21:59.391Z,20.13
2023-02-11T07:24:26.686Z,16.92
2023-02-11T07:26:54.068Z,16.13
2023-02-11T07:29:21.563Z,15.02
2023-02-11T07:31:48.846Z,14.27
2023-02-11T07:34:16.120Z,15.68
2023-02-11T07:36:45.017Z,12.95
2023-02-11T07:39:12.460Z,12.93
2023-02-11T07:41:39.602Z,17.20
2023-02-11T07:44:06.960Z,20.10
2023-02-11T07:46:35.641Z,15.68
2023-02-11T07:49:03.180Z,13.18
2023-02-11T07:51:31.381Z,15.73
2023-02-11T07:53:59.797Z,16.50
2023-02-11T07:56:28.255Z,16.52
2023-02-11T07:58:56.849Z,17.77
2023-02-11T08:01:28.205Z,15.05
2023-02-11T08:03:56.970Z,14.55
2023-02-11T08:06:27.340Z,14.65
2023-02-11T08:08:54.481Z,14.02
2023-02-11T08:11:26.627Z,12.95
2023-02-11T08:13:54.543Z,17.33
2023-02-11T08:16:29.808Z,15.88
2023-02-11T08:19:00.477Z,16.65
2023-02-11T08:21:28.115Z,18.50
2023-02-11T08:23:55.454Z,14.40
2023-02-11T08:26:26.535Z,17.38
2023-02-11T08:28:55.082Z,16.38
2023-02-11T08:31:27.615Z,16.73
2023-02-11T08:33:57.875Z,17.83
2023-02-11T08:36:29.015Z,19.35
2023-02-11T08:39:16.081Z,15.40
2023-02-11T08:41:46.836Z,18.05
2023-02-11T08:44:14.030Z,20.67
2023-02-11T08:46:41.123Z,23.17
2023-02-11T08:49:09.034Z,26.55
2023-02-11T08:51:36.145Z,22.60
2023-02-11T08:54:03.453Z,19.60
2023-02-11T08:56:32.348Z,17.85
2023-02-11T08:58:59.438Z,18.17
2023-02-11T09:01:31.156Z,18.92
2023-02-11T09:03:58.779Z,22.35
2023-02-11T09:06:26.751Z,22.52
2023-02-11T09:08:57.231Z,22.83
2023-02-11T09:11:30.828Z,18.63
2023-02-11T09:13:59.575Z,21.08
2023-02-11T09:16:30.000Z,18.70
2023-02-11T09:18:58.911Z,23.02
2023-02-11T09:21:26.442Z,20.55
2023-02-11T09:23:54.344Z,23.95
2023-02-11T09:26:29.449Z,23.02
2023-02-11T09:28:57.199Z,25.58
2023-02-11T09:31:26.673Z,21.25
2023-02-11T09:33:57.133Z,24.52
2023-02-11T09:36:33.925Z,20.60
2023-02-11T09:39:02.342Z,19.98
2023-02-11T09:42:01.584Z,24.13
2023-02-11T09:44:35.429Z,22.23
2023-02-11T09:50:12.349Z,22.65
2023-02-11T09:53:13.242Z,23.70
2023-02-11T09:55:44.843Z,26.10
2023-02-11T09:58:19.700Z,25.65
2023-02-11T10:01:10.245Z,20.73
2023-02-11T10:04:14.062Z,21.95
2023-02-11T10:06:54.276Z,23.87
2023-02-11T10:09:47.361Z,26.00
2023-02-11T10:12:32.692Z,26.83
2023-02-11T10:15:08.564Z,22.65
2023-02-11T10:17:49.634Z,22.08
2023-02-11T10:20:17.208Z,23.23
2023-02-11T10:22:54.754Z,23.05
2023-02-11T10:25:26.051Z,21.25
2023-02-11T10:27:57.790Z,20.27
2023-02-11T10:30:32.992Z,23.77
2023-02-11T10:33:15.064Z,27.02
2023-02-11T10:35:43.820Z,23.60
2023-02-11T10:38:11.494Z,28.23
2023-02-11T10:40:38.741Z,29.15
2023-02-11T10:43:13.412Z,24.63
2023-02-11T10:45:45.095Z,23.98
2023-02-11T10:48:41.492Z,24.38
2023-02-11T10:51:28.371Z,26.02
2023-02-11T10:54:04.587Z,24.25
2023-02-11T10:56:37.044Z,25.58
2023-02-11T10:59:24.335Z,26.02
2023-02-11T11:01:56.225Z,24.02
2023-02-11T11:04:38.263Z,27.90
2023-02-11T11:07:17.915Z,25.35
2023-02-11T11:09:52.715Z,25.67
2023-02-11T11:12:45.965Z,22.70
2023-02-11T11:15:23.483Z,29.15
2023-02-11T11:18:22.512Z,29.60
2023-02-11T11:21:17.952Z,25.40
2023-02-11T11:23:52.642Z,29.05
2023-02-11T11:26:20.264Z,23.42
2023-02-11T11:28:55.370Z,24.58
2023-02-11T11:31:30.240Z,24.85
2023-02-11T11:34:00.503Z,27.33
2023-02-11T11:36:37.256Z,22.85
2023-02-11T11:39:19.585Z,25.13
2023-02-11T11:41:56.482Z,29.15
2023-02-11T11:44:32.594Z,24.77
2023-02-11T11:47:11.574Z,25.52
2023-02-11T11:49:47.530Z,23.98
2023-02-11T11:52:46.332Z,24.27
2023-02-11T11:55:20.590Z,23.83
2023-02-11T11:57:48.956Z,24.58
2023-02-11T12:00:37.624Z,21.63
2023-02-11T12:03:27.859Z,27.92
2023-02-11T12:06:11.606Z,24.13
2023-02-11T12:08:57.053Z,25.77
2023-02-11T12:11:29.957Z,24.52
2023-02-11T12:14:18.080Z,24.00
2023-02-11T12:17:01.504Z,28.50
2023-02-11T12:19:59.268Z,21.40
2023-02-11T12:22:58.301Z,19.95
2023-02-11T12:25:27.481Z,24.17
2023-02-11T12:28:01.531Z,24.98
2023-02-11T12:30:40.538Z,21.80
2023-02-11T12:33:22.646Z,24.35
2023-02-11T12:35:59.173Z,23.35
2023-02-11T12:38:42.060Z,21.38
2023-02-11T12:41:49.242Z,22.40
2023-02-11T12:44:40.630Z,22.40
2023-02-11T12:47:24.860Z,23.10
2023-02-11T12:50:21.032Z,22.98
2023-02-11T12:52:59.900Z,21.48
2023-02-11T12:55:30.036Z,23.88
2023-02-11T12:57:59.525Z,24.73
2023-02-11T13:00:36.404Z,28.38
2023-02-11T13:03:16.744Z,23.83
2023-02-11T13:05:51.853Z,24.75
2023-02-11T13:08:35.317Z,23.08
2023-02-11T13:11:07.974Z,25.90
2023-02-11T13:13:48.986Z,23.60
2023-02-11T13:16:42.626Z,24.80
2023-02-11T13:19:12.750Z,22.75
2023-02-11T13:21:55.907Z,22.38
2023-02-11T13:24:39.197Z,21.70
2023-02-11T13:27:26.556Z,24.63
2023-02-11T13:30:11.454Z,26.30
2023-02-11T13:33:00.520Z,20.83
2023-02-11T13:35:31.832Z,20.52
2023-02-11T13:38:01.188Z,25.08
2023-02-11T13:40:33.102Z,21.17
2023-02-11T13:43:03.036Z,24.92
2023-02-11T13:45:36.069Z,22.23
2023-02-11T13:48:06.919Z,22.73
2023-02-11T13:50:39.699Z,22.95
2023-02-11T13:53:08.768Z,21.90
2023-02-11T13:55:36.103Z,22.48
2023-02-11T13:58:05.961Z,22.60
2023-02-11T14:00:36.132Z,23.05
2023-02-11T14:03:30.862Z,25.50
2023-02-11T14:06:28.583Z,22.33
2023-02-11T14:09:11.314Z,21.35
2023-02-11T14:11:41.618Z,26.85
2023-02-11T14:14:30.552Z,23.38
2023-02-11T14:17:06.794Z,25.88
2023-02-11T14:19:36.364Z,25.17
2023-02-11T14:22:16.551Z,24.85
2023-02-11T14:24:53.886Z,24.95
2023-02-11T14:27:29.570Z,25.02
2023-02-11T14:30:26.274Z,30.52
2023-02-11T14:33:06.306Z,24.00
2023-02-11T14:35:40.478Z,24.50
2023-02-11T14:38:31.642Z,27.50
2023-02-11T14:41:09.382Z,21.75
2023-02-11T14:43:42.901Z,26.10
2023-02-11T14:46:10.090Z,29.95
2023-02-11T14:48:39.032Z,26.23
2023-02-11T14:51:14.531Z,27.48
2023-02-11T14:53:49.545Z,27.95
2023-02-11T14:56:22.268Z,25.52
2023-02-11T14:58:51.913Z,25.25
2023-02-11T15:01:36.140Z,25.52
2023-02-11T15:04:05.703Z,27.10
2023-02-11T15:06:37.691Z,30.13
2023-02-11T15:09:17.024Z,24.15
2023-02-11T15:11:47.719Z,26.48
2023-02-11T15:14:25.602Z,26.92
2023-02-11T15:16:55.843Z,27.88
2023-02-11T15:19:28.876Z,29.00
2023-02-11T15:21:56.896Z,24.40
2023-02-11T15:24:25.718Z,27.52
2023-02-11T15:26:56.715Z,25.77
2023-02-11T15:29:26.689Z,23.13
2023-02-11T15:32:14.787Z,25.35
2023-02-11T15:34:43.099Z,23.67
2023-02-11T15:37:31.727Z,24.75
2023-02-11T15:40:16.005Z,26.30
2023-02-11T15:42:58.501Z,29.80
2023-02-11T15:45:38.520Z,29.50
2023-02-11T15:48:31.708Z,28.70
2023-02-11T15:51:02.400Z,24.95
2023-02-11T15:53:33.441Z,26.60
2023-02-11T15:56:09.946Z,29.00
2023-02-11T15:58:40.151Z,30.20
2023-02-11T16:01:08.776Z,29.52
2023-02-11T16:03:36.246Z,24.83
2023-02-11T16:06:15.340Z,28.08
2023-02-11T16:08:43.142Z,25.48
2023-02-11T16:11:26.486Z,28.25
2023-02-11T16:13:53.585Z,30.75
2023-02-11T16:16:26.144Z,27.70
2023-02-11T16:19:04.725Z,26.50
2023-02-11T16:21:38.992Z,28.63
2023-02-11T16:24:08.259Z,26.65
2023-02-11T16:26:43.107Z,28.17
2023-02-11T16:29:15.766Z,26.73
2023-02-11T16:31:45.954Z,27.85
2023-02-11T16:34:15.458Z,28.90
2023-02-11T16:36:42.961Z,28.67
2023-02-11T16:39:10.671Z,26.63
2023-02-11T16:41:37.843Z,26.88
2023-02-11T16:44:05.118Z,30.77
2023-02-11T16:46:33.421Z,31.98
2023-02-11T16:49:20.280Z,30.30
2023-02-11T16:51:50.235Z,29.95
2023-02-11T16:54:17.973Z,29.60
2023-02-11T16:56:45.400Z,31.33
2023-02-11T16:59:12.610Z,32.03
2023-02-11T17:01:41.581Z,34.72
2023-02-11T17:04:16.591Z,32.25
2023-02-11T17:06:43.685Z,36.75
2023-02-11T17:09:20.655Z,40.63
2023-02-11T17:11:48.632Z,41.58
2023-02-11T17:14:15.920Z,33.08
2023-02-11T17:16:43.749Z,31.48
2023-02-11T17:19:16.850Z,34.70
2023-02-11T17:21:45.801Z,34.75
2023-02-11T17:24:14.994Z,29.33
2023-02-11T17:26:43.466Z,37.00
2023-02-11T17:29:13.808Z,40.65
2023-02-11T17:31:41.288Z,34.80
2023-02-11T17:34:08.657Z,34.75
2023-02-11T17:36:36.540Z,33.80
2023-02-11T17:39:07.666Z,33.47
2023-02-11T17:41:37.041Z,33.10
2023-02-11T17:44:04.864Z,38.33
2023-02-11T17:46:32.319Z,38.78
2023-02-11T17:48:59.596Z,43.75
2023-02-11T17:51:35.848Z,35.08
2023-02-11T17:54:11.860Z,37.83
2023-02-11T17:56:39.227Z,40.20
2023-02-11T17:59:08.592Z,46.70
2023-02-11T18:01:37.710Z,43.22
2023-02-11T18:04:05.501Z,45.22
2023-02-11T18:06:36.373Z,38.00
2023-02-11T18:09:04.348Z,33.95
2023-02-11T18:11:33.676Z,46.30
2023-02-11T18:14:02.610Z,37.08
2023-02-11T18:16:30.446Z,42.47
2023-02-11T18:18:58.816Z,44.88
2023-02-11T18:21:26.376Z,39.80
2023-02-11T18:23:53.747Z,43.00
2023-02-11T18:26:21.460Z,42.67
2023-02-11T18:28:48.579Z,46.58
2023-02-11T18:31:15.882Z,37.45
2023-02-11T18:33:43.182Z,37.72
2023-02-11T18:36:14.838Z,38.13
2023-02-11T18:38:44.083Z,35.58
2023-02-11T18:41:12.267Z,40.80
2023-02-11T18:43:40.112Z,40.67
2023-02-11T18:46:10.608Z,45.10
2023-02-11T18:48:38.726Z,53.92
2023-02-11T18:51:14.904Z,41.13
2023-02-11T18:53:43.116Z,48.70
2023-02-11T18:56:22.077Z,44.17
2023-02-11T18:58:51.337Z,52.10
2023-02-11T19:01:21.239Z,56.55
2023-02-11T19:03:48.641Z,41.08
2023-02-11T19:06:27.024Z,51.33
2023-02-11T19:08:58.277Z,51.92
2023-02-11T19:11:46.416Z,51.90
2023-02-11T19:14:16.428Z,63.22
2023-02-11T19:16:46.048Z,67.32
2023-02-11T19:19:13.845Z,82.22
2023-02-11T19:21:43.633Z,67.82
2023-02-11T19:24:12.178Z,65.00
2023-02-11T19:26:39.304Z,58.20
2023-02-11T19:29:06.427Z,51.20
2023-02-11T19:31:34.087Z,52.78
2023-02-11T19:34:02.693Z,43.33
2023-02-11T19:36:30.060Z,50.25
2023-02-11T19:39:00.860Z,48.80
2023-02-11T19:41:28.910Z,64.20
2023-02-11T19:43:56.738Z,53.38
2023-02-11T19:46:25.591Z,49.50
2023-02-11T19:48:53.145Z,44.88
2023-02-11T19:51:21.287Z,49.08
2023-02-11T19:53:48.945Z,42.33
2023-02-11T19:56:16.080Z,49.47
2023-02-11T19:58:43.637Z,48.92
2023-02-11T20:01:10.655Z,47.22
2023-02-11T20:03:40.746Z,50.53
2023-02-11T20:06:13.811Z,52.80
2023-02-11T20:08:41.253Z,56.63
2023-02-11T20:11:11.499Z,51.00
2023-02-11T20:13:39.372Z,45.95
2023-02-11T20:16:19.683Z,56.80
2023-02-11T20:18:48.753Z,55.72
2023-02-11T20:21:24.438Z,49.22
2023-02-11T20:23:52.407Z,46.95
2023-02-11T20:26:22.440Z,51.75
2023-02-11T20:28:50.765Z,50.92
2023-02-11T20:31:18.682Z,42.20
2023-02-11T20:33:46.253Z,47.53
2023-02-11T20:36:17.655Z,43.65
2023-02-11T20:38:44.934Z,49.78
2023-02-11T20:41:15.739Z,51.65
2023-02-11T20:43:48.168Z,41.25
2023-02-11T20:46:17.612Z,42.53
2023-02-11T20:48:44.839Z,47.90
2023-02-11T20:51:17.788Z,51.78
2023-02-11T20:53:51.204Z,55.33
2023-02-11T20:56:21.486Z,48.58
2023-02-11T20:58:49.097Z,49.08
2023-02-11T21:01:25.168Z,46.78
2023-02-11T21:04:02.156Z,41.53
2023-02-11T21:06:36.958Z,41.25
2023-02-11T21:09:05.802Z,42.35
2023-02-11T21:11:33.011Z,41.65
2023-02-11T21:14:00.436Z,43.92
2023-02-11T21:16:28.035Z,45.75
2023-02-11T21:18:55.380Z,45.70
2023-02-11T21:21:22.527Z,42.17
2023-02-11T21:23:50.092Z,45.05
2023-02-11T21:26:17.278Z,48.30
2023-02-11T21:28:44.529Z,47.88
2023-02-11T21:31:21.965Z,51.03
2023-02-11T21:33:50.480Z,45.58
2023-02-11T21:36:17.850Z,44.00
2023-02-11T21:38:45.041Z,48.45
2023-02-11T21:41:12.238Z,35.08
2023-02-11T21:43:39.291Z,42.28
2023-02-11T21:46:09.732Z,41.17
2023-02-11T21:48:37.001Z,42.63
2023-02-11T21:51:13.388Z,41.08
2023-02-11T21:53:40.465Z,44.10
2023-02-11T21:56:16.912Z,37.83
2023-02-11T21:58:45.486Z,35.00
2023-02-11T22:01:33.580Z,35.42
2023-02-11T22:04:01.575Z,40.75
2023-02-11T22:06:32.861Z,34.10
2023-02-11T22:09:06.445Z,38.95
2023-02-11T22:11:33.643Z,38.35
2023-02-11T22:14:00.965Z,36.40
2023-02-11T22:16:30.212Z,39.55
2023-02-11T22:18:58.861Z,35.00
2023-02-11T22:21:26.210Z,36.88
2023-02-11T22:23:54.720Z,35.65
2023-02-11T22:26:23.304Z,38.08
2023-02-11T22:28:51.178Z,41.00
2023-02-11T22:31:21.252Z,34.80
2023-02-11T22:33:48.864Z,40.80
2023-02-11T22:36:22.512Z,42.63
2023-02-11T22:38:50.272Z,40.80
2023-02-11T22:41:18.317Z,39.75
2023-02-11T22:43:45.734Z,38.72
2023-02-11T22:46:16.847Z,36.72
2023-02-11T22:48:44.021Z,38.78
2023-02-11T22:51:14.421Z,38.88
2023-02-11T22:53:43.588Z,40.67
2023-02-11T22:56:15.381Z,38.33
2023-02-11T22:58:43.161Z,36.85
2023-02-11T23:01:11.132Z,40.13
2023-02-11T23:03:39.104Z,37.58
2023-02-11T23:06:07.456Z,40.88
2023-02-11T23:08:34.927Z,43.45
2023-02-11T23:11:07.631Z,39.42
2023-02-11T23:13:36.767Z,40.75
2023-02-11T23:16:06.595Z,41.03
2023-02-11T23:18:35.446Z,43.03
2023-02-11T23:21:12.699Z,39.38
2023-02-11T23:23:40.007Z,35.95
2023-02-11T23:26:13.686Z,38.05
2023-02-11T23:28:41.380Z,40.88
2023-02-11T23:31:20.044Z,52.55
2023-02-11T23:33:47.764Z,44.08
2023-02-11T23:36:15.761Z,47.55
2023-02-11T23:38:43.306Z,46.30
2023-02-11T23:41:11.255Z,44.72
2023-02-11T23:43:38.787Z,36.90
2023-02-11T23:46:06.978Z,41.45
2023-02-11T23:48:35.962Z,37.33
2023-02-11T23:51:03.636Z,40.88
2023-02-11T23:53:30.729Z,39.97
2023-02-11T23:55:57.837Z,45.75
2023-02-11T23:58:24.967Z,41.83
